Главная страница
METAR-TAF:

METAR-TAF

Аэропорты :

Meriden-Markham Municipal Airport

Meriden, Коннектикут, США

широта: 41-30-35N, долгота: 072-49-40W, высота над уровнем моря: 31 м

Текущие метеонаблюдения

Эта сводка был подготовлена 8 часа и 51 минут назад, в 04:53 UTC
Штиль
Температура 18°C
Влажность 94%
Давление 1022 hPa
Видимость: 16.1 км
Сплошная облачность на высоте 6500 фута

METAR: KMMK 210453Z AUTO 00000KT 10SM OVC065 18/17 A3017 RMK AO2 SLP214 T01830167 402720172 TSNO

Время: 09:44 (13:44 UTC)


TAF: отсутствует

Метеонаблюдения и прогнозы для более 4000 аэропортов (сводки METAR и TAF).

Имеющиеся станции представлены на карте желтыми и красными точками.

Чтобы увидеть название станции, наведите на нее мышь.

Затем щелкните, чтобы увидеть метеонаблюдения и метеопрогнозы.

Управление картой: чтобы увеличить масштаб, щелкните зеленые кнопки с черным крестиком; чтобы уменьшить масштаб, щелкните зеленую кнопку с тире; для просмотра соседних карт щелкайте зеленые стрелки.


METAR-TAF: